createdAt,value
2022-10-20T00:01:25.688Z,9.80
2022-10-20T00:03:53.737Z,9.80
2022-10-20T00:06:24.476Z,9.70
2022-10-20T00:08:52.085Z,9.70
2022-10-20T00:11:20.388Z,9.70
2022-10-20T00:13:48.967Z,9.80
2022-10-20T00:16:16.985Z,9.70
2022-10-20T00:18:44.134Z,9.80
2022-10-20T00:21:17.882Z,9.80
2022-10-20T00:23:45.273Z,9.80
2022-10-20T00:26:15.110Z,9.80
2022-10-20T00:28:42.790Z,9.70
2022-10-20T00:31:10.819Z,9.70
2022-10-20T00:33:37.988Z,9.70
2022-10-20T00:36:07.584Z,9.80
2022-10-20T00:38:35.113Z,9.70
2022-10-20T00:41:05.436Z,9.80
2022-10-20T00:43:51.710Z,9.80
2022-10-20T00:46:42.059Z,9.80
2022-10-20T00:49:18.123Z,9.70
2022-10-20T00:51:45.472Z,9.70
2022-10-20T00:54:20.536Z,9.80
2022-10-20T00:56:50.153Z,9.80
2022-10-20T00:59:21.799Z,9.80
2022-10-20T01:01:49.824Z,9.70
2022-10-20T01:04:17.862Z,9.70
2022-10-20T01:06:45.125Z,9.70
2022-10-20T01:09:12.539Z,9.70
2022-10-20T01:11:54.320Z,9.70
2022-10-20T01:14:39.724Z,9.60
2022-10-20T01:17:47.554Z,9.60
2022-10-20T01:20:42.101Z,9.60
2022-10-20T01:23:14.730Z,9.70
2022-10-20T01:25:57.395Z,9.60
2022-10-20T01:28:45.885Z,9.70
2022-10-20T01:31:23.888Z,9.60
2022-10-20T01:34:11.988Z,9.60
2022-10-20T01:36:51.469Z,9.70
2022-10-20T01:39:30.099Z,9.70
2022-10-20T01:42:03.755Z,9.70
2022-10-20T01:44:32.343Z,9.70
2022-10-20T01:47:00.406Z,9.60
2022-10-20T01:49:27.813Z,9.60
2022-10-20T01:51:56.113Z,9.60
2022-10-20T01:54:29.098Z,9.60
2022-10-20T01:57:16.282Z,9.60
2022-10-20T02:00:04.186Z,9.50
2022-10-20T02:03:04.122Z,9.60
2022-10-20T02:05:45.788Z,9.60
2022-10-20T02:08:34.542Z,9.50
2022-10-20T02:11:05.270Z,9.60
2022-10-20T02:13:36.038Z,9.50
2022-10-20T02:16:09.555Z,9.50
2022-10-20T02:18:42.593Z,9.50
2022-10-20T02:21:10.393Z,9.60
2022-10-20T02:23:42.327Z,9.60
2022-10-20T02:26:13.493Z,9.70
2022-10-20T02:28:47.308Z,9.70
2022-10-20T02:31:14.530Z,9.70
2022-10-20T02:33:43.691Z,9.60
2022-10-20T02:36:17.546Z,9.70
2022-10-20T02:38:44.784Z,9.60
2022-10-20T02:41:12.094Z,9.70
2022-10-20T02:43:39.372Z,9.60
2022-10-20T02:46:06.553Z,9.70
2022-10-20T02:48:33.644Z,9.80
2022-10-20T02:51:01.094Z,9.80
2022-10-20T02:53:28.090Z,9.80
2022-10-20T02:55:55.157Z,9.70
2022-10-20T02:58:22.155Z,9.80
2022-10-20T03:00:52.143Z,9.80
2022-10-20T03:03:19.751Z,9.90
2022-10-20T03:05:47.741Z,9.80
2022-10-20T03:08:15.305Z,9.80
2022-10-20T03:10:42.954Z,9.80
2022-10-20T03:13:10.765Z,9.80
2022-10-20T03:15:38.294Z,9.80
2022-10-20T03:18:05.411Z,9.80
2022-10-20T03:20:33.110Z,9.80
2022-10-20T03:23:00.220Z,9.90
2022-10-20T03:25:27.320Z,9.90
2022-10-20T03:27:54.330Z,9.80
2022-10-20T03:30:21.520Z,9.80
2022-10-20T03:32:48.913Z,9.80
2022-10-20T03:35:16.117Z,9.80
2022-10-20T03:37:43.114Z,9.80
2022-10-20T03:40:10.410Z,9.70
2022-10-20T03:42:37.926Z,9.80
2022-10-20T03:45:05.610Z,9.90
2022-10-20T03:47:32.717Z,9.90
2022-10-20T03:49:59.713Z,9.90
2022-10-20T03:52:26.784Z,9.80
2022-10-20T03:54:53.768Z,9.80
2022-10-20T03:57:21.997Z,9.80
2022-10-20T03:59:49.111Z,9.90
2022-10-20T04:02:36.670Z,9.80
2022-10-20T04:05:04.999Z,9.80
2022-10-20T04:07:32.233Z,9.80
2022-10-20T04:10:02.259Z,9.80
2022-10-20T04:12:29.406Z,9.70
2022-10-20T04:14:56.524Z,9.80
2022-10-20T04:17:23.920Z,9.80
2022-10-20T04:19:50.903Z,9.70
2022-10-20T04:22:17.924Z,9.80
2022-10-20T04:24:46.277Z,9.80
2022-10-20T04:27:13.309Z,9.70
2022-10-20T04:29:40.414Z,9.70
2022-10-20T04:32:07.484Z,9.70
2022-10-20T04:34:35.077Z,9.70
2022-10-20T04:37:02.298Z,9.80
2022-10-20T04:39:29.316Z,9.70
2022-10-20T04:41:56.472Z,9.80
2022-10-20T04:44:23.774Z,9.80
2022-10-20T04:46:51.093Z,9.80
2022-10-20T04:49:18.272Z,9.70
2022-10-20T04:51:45.857Z,9.80
2022-10-20T04:54:12.987Z,9.80
2022-10-20T04:56:40.532Z,9.80
2022-10-20T04:59:11.012Z,9.80
2022-10-20T05:01:41.021Z,9.80
2022-10-20T05:04:08.976Z,9.80
2022-10-20T05:06:36.156Z,9.80
2022-10-20T05:09:05.996Z,9.90
2022-10-20T05:11:37.364Z,9.80
2022-10-20T05:14:04.920Z,9.80
2022-10-20T05:16:32.247Z,9.80
2022-10-20T05:18:59.954Z,9.90
2022-10-20T05:21:30.064Z,9.90
2022-10-20T05:24:02.547Z,9.90
2022-10-20T05:26:34.743Z,10.00
2022-10-20T05:29:07.326Z,10.00
2022-10-20T05:31:41.875Z,9.90
2022-10-20T05:34:10.027Z,9.90
2022-10-20T05:36:37.583Z,9.90
2022-10-20T05:39:05.213Z,9.90
2022-10-20T05:41:37.910Z,9.90
2022-10-20T05:44:09.111Z,10.00
2022-10-20T05:46:41.761Z,10.00
2022-10-20T05:49:16.846Z,9.90
2022-10-20T05:51:45.208Z,9.90
2022-10-20T05:54:13.864Z,9.90
2022-10-20T05:56:41.620Z,10.00
2022-10-20T05:59:09.836Z,9.90
2022-10-20T06:01:50.498Z,9.90
2022-10-20T06:04:20.227Z,10.00
2022-10-20T06:06:49.101Z,9.90
2022-10-20T06:09:17.543Z,9.90
2022-10-20T06:11:45.153Z,10.00
2022-10-20T06:14:12.333Z,10.00
2022-10-20T06:16:39.574Z,10.10
2022-10-20T06:19:07.540Z,10.10
2022-10-20T06:21:36.814Z,10.10
2022-10-20T06:24:05.814Z,10.10
2022-10-20T06:26:36.732Z,10.10
2022-10-20T06:29:10.129Z,10.10
2022-10-20T06:31:40.137Z,10.00
2022-10-20T06:34:08.983Z,10.10
2022-10-20T06:36:38.675Z,10.10
2022-10-20T06:39:08.186Z,10.10
2022-10-20T06:41:35.778Z,10.10
2022-10-20T06:44:03.523Z,10.10
2022-10-20T06:46:33.385Z,10.10
2022-10-20T06:49:01.720Z,10.20
2022-10-20T06:51:28.904Z,10.20
2022-10-20T06:53:56.270Z,10.20
2022-10-20T06:56:25.939Z,10.20
2022-10-20T06:58:54.602Z,10.30
2022-10-20T07:01:24.558Z,10.30
2022-10-20T07:03:54.581Z,10.40
2022-10-20T07:06:25.537Z,10.40
2022-10-20T07:08:54.048Z,10.40
2022-10-20T07:11:23.898Z,10.40
2022-10-20T07:13:51.138Z,10.50
2022-10-20T07:16:21.769Z,10.50
2022-10-20T07:18:49.091Z,10.50
2022-10-20T07:21:19.599Z,10.50
2022-10-20T07:23:47.944Z,10.60
2022-10-20T07:26:19.118Z,10.60
2022-10-20T07:28:53.339Z,10.60
2022-10-20T07:31:29.075Z,10.60
2022-10-20T07:34:07.096Z,10.60
2022-10-20T07:36:44.287Z,10.60
2022-10-20T07:39:13.163Z,10.60
2022-10-20T07:41:40.948Z,10.70
2022-10-20T07:44:08.159Z,10.70
2022-10-20T07:46:36.621Z,10.70
2022-10-20T07:49:42.463Z,10.80
2022-10-20T07:51:51.738Z,10.80
2022-10-20T07:54:19.043Z,10.90
2022-10-20T07:56:46.595Z,10.90
2022-10-20T07:59:14.182Z,10.90
2022-10-20T08:01:41.983Z,11.00
2022-10-20T08:04:09.350Z,11.00
2022-10-20T08:06:36.708Z,11.10
2022-10-20T08:09:04.493Z,11.10
2022-10-20T08:11:31.871Z,11.20
2022-10-20T08:13:59.128Z,11.20
2022-10-20T08:16:28.974Z,11.30
2022-10-20T08:21:37.139Z,11.30
2022-10-20T08:24:04.291Z,11.40
2022-10-20T08:26:31.426Z,11.40
2022-10-20T08:28:58.758Z,11.50
2022-10-20T08:31:26.225Z,11.50
2022-10-20T08:33:54.246Z,11.50
2022-10-20T08:36:21.604Z,11.60
2022-10-20T08:38:49.092Z,11.70
2022-10-20T08:41:22.874Z,11.70
2022-10-20T08:43:53.089Z,11.70
2022-10-20T08:46:24.920Z,11.70
2022-10-20T08:48:53.090Z,11.70
2022-10-20T08:51:26.240Z,11.80
2022-10-20T08:53:57.384Z,11.80
2022-10-20T08:56:27.698Z,11.80
2022-10-20T08:58:55.067Z,11.70
2022-10-20T09:01:26.679Z,11.70
2022-10-20T09:04:03.345Z,11.70
2022-10-20T09:06:31.369Z,11.60
2022-10-20T09:08:58.790Z,11.60
2022-10-20T09:11:36.849Z,11.50
2022-10-20T09:14:04.210Z,11.50
2022-10-20T09:16:42.073Z,11.50
2022-10-20T09:19:28.897Z,11.50
2022-10-20T09:22:02.980Z,11.50
2022-10-20T09:24:32.085Z,11.50
2022-10-20T09:27:21.600Z,11.50
2022-10-20T09:29:48.986Z,11.50
2022-10-20T09:32:46.602Z,11.50
2022-10-20T09:35:36.022Z,11.60
2022-10-20T09:38:24.111Z,11.60
2022-10-20T09:41:14.065Z,11.60
2022-10-20T09:43:58.037Z,11.70
2022-10-20T09:46:29.642Z,11.80
2022-10-20T09:48:57.657Z,11.90
2022-10-20T09:51:27.363Z,12.00
2022-10-20T09:54:05.276Z,12.00
2022-10-20T09:56:38.255Z,12.10
2022-10-20T09:59:34.235Z,12.10
2022-10-20T10:02:22.970Z,12.20
2022-10-20T10:04:52.495Z,12.20
2022-10-20T10:07:22.572Z,12.30
2022-10-20T10:10:08.653Z,12.30
2022-10-20T10:12:36.614Z,12.40
2022-10-20T10:15:23.931Z,12.40
2022-10-20T10:17:51.446Z,12.30
2022-10-20T10:20:27.211Z,12.30
2022-10-20T10:23:28.037Z,12.30
2022-10-20T10:25:59.225Z,12.30
2022-10-20T10:28:35.367Z,12.20
2022-10-20T10:31:20.420Z,12.20
2022-10-20T10:33:49.427Z,12.30
2022-10-20T10:36:36.584Z,12.30
2022-10-20T10:39:05.949Z,12.30
2022-10-20T10:42:04.007Z,12.20
2022-10-20T10:44:54.106Z,12.10
2022-10-20T10:47:42.954Z,12.00
2022-10-20T10:50:42.577Z,12.00
2022-10-20T10:53:16.397Z,12.10
2022-10-20T10:56:20.284Z,12.00
2022-10-20T10:59:02.908Z,12.10
2022-10-20T11:01:45.377Z,12.10
2022-10-20T11:04:44.213Z,12.10
2022-10-20T11:07:33.333Z,12.00
2022-10-20T11:10:13.552Z,12.00
2022-10-20T11:12:53.561Z,11.90
2022-10-20T11:15:54.185Z,11.80
2022-10-20T11:18:49.416Z,11.80
2022-10-20T11:21:34.910Z,11.80
2022-10-20T11:24:23.591Z,11.80
2022-10-20T11:27:01.801Z,11.80
2022-10-20T11:30:09.601Z,11.80
2022-10-20T11:32:53.373Z,11.90
2022-10-20T11:35:40.171Z,11.90
2022-10-20T11:38:26.598Z,11.90
2022-10-20T11:41:06.472Z,11.80
2022-10-20T11:43:43.274Z,11.80
2022-10-20T11:46:15.069Z,11.80
2022-10-20T11:48:48.267Z,11.70
2022-10-20T11:51:26.964Z,11.70
2022-10-20T11:54:12.042Z,11.70
2022-10-20T11:57:00.163Z,11.80
2022-10-20T11:59:42.320Z,11.70
2022-10-20T12:02:19.254Z,11.70
2022-10-20T12:05:07.997Z,11.60
2022-10-20T12:08:28.910Z,11.60
2022-10-20T12:11:16.261Z,11.60
2022-10-20T12:13:58.717Z,11.50
2022-10-20T12:16:59.738Z,11.50
2022-10-20T12:19:32.287Z,11.50
2022-10-20T12:22:02.070Z,11.40
2022-10-20T12:24:54.839Z,11.40
2022-10-20T12:27:29.819Z,11.40
2022-10-20T12:30:18.151Z,11.40
2022-10-20T12:32:53.711Z,11.50
2022-10-20T12:35:31.571Z,11.40
2022-10-20T12:38:05.560Z,11.50
2022-10-20T12:40:41.513Z,11.40
2022-10-20T12:43:43.975Z,11.40
2022-10-20T12:46:17.219Z,11.40
2022-10-20T12:48:47.128Z,11.40
2022-10-20T12:51:51.846Z,11.40
2022-10-20T12:54:24.444Z,11.30
2022-10-20T12:56:52.608Z,11.30
2022-10-20T12:59:28.500Z,11.40
2022-10-20T13:02:11.006Z,11.40
2022-10-20T13:05:02.807Z,11.50
2022-10-20T13:07:52.791Z,11.60
2022-10-20T13:10:25.502Z,11.70
2022-10-20T13:12:53.671Z,11.80
2022-10-20T13:15:22.550Z,11.80
2022-10-20T13:18:02.777Z,11.90
2022-10-20T13:21:02.950Z,11.90
2022-10-20T13:23:37.658Z,11.90
2022-10-20T13:26:32.583Z,12.00
2022-10-20T13:29:00.581Z,12.00
2022-10-20T13:32:03.836Z,11.90
2022-10-20T13:35:04.963Z,12.00
2022-10-20T13:37:53.248Z,11.90
2022-10-20T13:40:39.972Z,11.90
2022-10-20T13:43:25.451Z,11.80
2022-10-20T13:45:55.443Z,11.90
2022-10-20T13:48:34.961Z,11.90
2022-10-20T13:51:24.774Z,11.80
2022-10-20T13:53:56.474Z,11.90
2022-10-20T13:56:36.278Z,11.90
2022-10-20T13:59:13.907Z,11.90
2022-10-20T14:01:51.315Z,11.90
2022-10-20T14:04:35.508Z,11.90
2022-10-20T14:07:15.976Z,11.90
2022-10-20T14:09:46.652Z,11.90
2022-10-20T14:12:28.295Z,11.90
2022-10-20T14:15:02.243Z,11.90
2022-10-20T14:17:29.810Z,11.90
2022-10-20T14:20:31.051Z,11.90
2022-10-20T14:23:00.770Z,11.90
2022-10-20T14:25:28.702Z,12.00
2022-10-20T14:27:56.888Z,12.00
2022-10-20T14:30:24.888Z,12.00
2022-10-20T14:32:52.658Z,12.00
2022-10-20T14:35:44.185Z,12.00
2022-10-20T14:38:25.243Z,12.00
2022-10-20T14:40:55.509Z,12.00
2022-10-20T14:43:39.688Z,12.00
2022-10-20T14:46:10.436Z,11.90
2022-10-20T14:48:50.163Z,11.90
2022-10-20T14:51:41.056Z,12.00
2022-10-20T14:54:20.280Z,12.00
2022-10-20T14:56:54.997Z,12.00
2022-10-20T14:59:31.913Z,12.00
2022-10-20T15:02:12.596Z,12.00
2022-10-20T15:04:42.036Z,12.00
2022-10-20T15:07:34.185Z,12.00
2022-10-20T15:10:15.812Z,12.00
2022-10-20T15:12:49.189Z,12.00
2022-10-20T15:15:29.008Z,11.90
2022-10-20T15:18:05.238Z,12.00
2022-10-20T15:20:35.363Z,12.00
2022-10-20T15:23:15.142Z,12.00
2022-10-20T15:25:50.721Z,12.00
2022-10-20T15:28:31.911Z,12.00
2022-10-20T15:31:00.284Z,12.00
2022-10-20T15:33:27.628Z,12.00
2022-10-20T15:35:55.144Z,12.00
2022-10-20T15:38:22.427Z,12.00
2022-10-20T15:40:49.715Z,12.00
2022-10-20T15:43:18.859Z,12.00
2022-10-20T15:45:53.875Z,12.00
2022-10-20T15:48:27.260Z,12.00
2022-10-20T15:50:55.288Z,12.00
2022-10-20T15:53:22.604Z,12.00
2022-10-20T15:55:49.866Z,12.00
2022-10-20T15:58:17.019Z,11.90
2022-10-20T16:00:44.341Z,12.00
2022-10-20T16:03:19.201Z,12.00
2022-10-20T16:05:47.464Z,11.90
2022-10-20T16:10:46.920Z,11.90
2022-10-20T16:13:16.168Z,11.90
2022-10-20T16:15:43.332Z,11.90
2022-10-20T16:18:11.147Z,11.80
2022-10-20T16:20:38.320Z,11.80
2022-10-20T16:23:05.471Z,11.80
2022-10-20T16:25:32.866Z,11.80
2022-10-20T16:27:59.901Z,11.80
2022-10-20T16:30:27.027Z,11.80
2022-10-20T16:32:54.509Z,11.80
2022-10-20T16:35:21.723Z,11.80
2022-10-20T16:37:49.106Z,11.80
2022-10-20T16:40:16.580Z,11.70
2022-10-20T16:42:43.840Z,11.80
2022-10-20T16:45:11.258Z,11.80
2022-10-20T16:47:38.781Z,11.80
2022-10-20T16:50:06.776Z,11.70
2022-10-20T16:52:33.935Z,11.70
2022-10-20T16:55:01.037Z,11.70
2022-10-20T16:57:29.779Z,11.70
2022-10-20T16:59:56.852Z,11.70
2022-10-20T17:02:25.330Z,11.70
2022-10-20T17:04:52.517Z,11.60
2022-10-20T17:07:22.438Z,11.60
2022-10-20T17:09:49.819Z,11.60
2022-10-20T17:12:17.242Z,11.60
2022-10-20T17:14:44.582Z,11.60
2022-10-20T17:17:11.900Z,11.60
2022-10-20T17:19:41.291Z,11.60
2022-10-20T17:22:08.660Z,11.60
2022-10-20T17:24:36.113Z,11.60
2022-10-20T17:27:03.515Z,11.60
2022-10-20T17:29:31.388Z,11.60
2022-10-20T17:31:58.544Z,11.60
2022-10-20T17:34:25.964Z,11.50
2022-10-20T17:36:53.288Z,11.50
2022-10-20T17:39:22.354Z,11.50
2022-10-20T17:41:49.678Z,11.50
2022-10-20T17:44:17.070Z,11.60
2022-10-20T17:46:44.317Z,11.60
2022-10-20T17:49:11.710Z,11.60
2022-10-20T17:51:39.124Z,11.60
2022-10-20T17:54:06.513Z,11.60
2022-10-20T17:56:36.387Z,11.60
2022-10-20T17:59:06.693Z,11.60
2022-10-20T18:01:39.334Z,11.60
2022-10-20T18:04:12.962Z,11.60
2022-10-20T18:06:41.578Z,11.70
2022-10-20T18:09:11.779Z,11.70
2022-10-20T18:11:40.960Z,11.70
2022-10-20T18:14:08.162Z,11.70
2022-10-20T18:16:37.335Z,11.70
2022-10-20T18:19:05.157Z,11.70
2022-10-20T18:21:33.528Z,11.70
2022-10-20T18:24:05.350Z,11.70
2022-10-20T18:26:34.707Z,11.70
2022-10-20T18:29:03.198Z,11.70
2022-10-20T18:31:32.632Z,11.70
2022-10-20T18:34:05.676Z,11.60
2022-10-20T18:36:36.888Z,11.60
2022-10-20T18:39:07.589Z,11.60
2022-10-20T18:41:38.421Z,11.60
2022-10-20T18:44:10.319Z,11.60
2022-10-20T18:46:46.274Z,11.60
2022-10-20T18:49:16.243Z,11.60
2022-10-20T18:51:45.946Z,11.70
2022-10-20T18:54:13.402Z,11.60
2022-10-20T18:56:41.222Z,11.50
2022-10-20T18:59:18.173Z,11.50
2022-10-20T19:01:46.193Z,11.50
2022-10-20T19:04:14.021Z,11.50
2022-10-20T19:06:47.693Z,11.50
2022-10-20T19:09:18.590Z,11.60
2022-10-20T19:11:47.667Z,11.60
2022-10-20T19:14:15.631Z,11.60
2022-10-20T19:16:47.172Z,11.60
2022-10-20T19:19:14.941Z,11.60
2022-10-20T19:21:42.276Z,11.60
2022-10-20T19:24:16.783Z,11.60
2022-10-20T19:26:57.422Z,11.60
2022-10-20T19:29:29.830Z,11.60
2022-10-20T19:32:02.577Z,11.70
2022-10-20T19:34:36.848Z,11.70
2022-10-20T19:37:04.548Z,11.70
2022-10-20T19:39:39.328Z,11.70
2022-10-20T19:42:07.741Z,11.80
2022-10-20T19:44:35.084Z,11.80
2022-10-20T19:47:02.725Z,11.90
2022-10-20T19:49:30.804Z,11.90
2022-10-20T19:51:58.108Z,11.90
2022-10-20T19:54:25.931Z,11.90
2022-10-20T19:56:53.457Z,11.90
2022-10-20T19:59:20.785Z,11.90
2022-10-20T20:01:49.825Z,11.90
2022-10-20T20:04:17.209Z,12.00
2022-10-20T20:06:46.653Z,11.90
2022-10-20T20:09:15.880Z,12.00
2022-10-20T20:11:44.625Z,12.00
2022-10-20T20:14:17.674Z,12.00
2022-10-20T20:16:47.978Z,11.90
2022-10-20T20:19:17.726Z,11.90
2022-10-20T20:21:46.248Z,12.00
2022-10-20T20:24:14.555Z,12.00
2022-10-20T20:26:41.957Z,12.00
2022-10-20T20:29:10.795Z,11.90
2022-10-20T20:31:38.079Z,11.90
2022-10-20T20:34:05.290Z,11.90
2022-10-20T20:36:32.603Z,11.90
2022-10-20T20:39:00.433Z,12.00
2022-10-20T20:41:30.408Z,11.90
2022-10-20T20:43:58.111Z,11.90
2022-10-20T20:46:29.698Z,12.00
2022-10-20T20:48:57.658Z,11.90
2022-10-20T20:51:26.200Z,12.00
2022-10-20T20:53:53.312Z,11.90
2022-10-20T20:56:23.217Z,12.00
2022-10-20T20:58:55.771Z,12.10
2022-10-20T21:01:28.107Z,12.10
2022-10-20T21:04:00.759Z,12.10
2022-10-20T21:06:33.708Z,12.10
2022-10-20T21:09:01.545Z,12.10
2022-10-20T21:11:29.166Z,12.10
2022-10-20T21:13:59.111Z,12.20
2022-10-20T21:16:31.440Z,12.10
2022-10-20T21:19:01.701Z,12.10
2022-10-20T21:21:34.577Z,12.20
2022-10-20T21:24:02.799Z,12.20
2022-10-20T21:26:30.432Z,12.20
2022-10-20T21:28:58.136Z,12.20
2022-10-20T21:31:27.007Z,12.30
2022-10-20T21:33:56.596Z,12.20
2022-10-20T21:36:25.130Z,12.20
2022-10-20T21:38:52.696Z,12.30
2022-10-20T21:41:24.910Z,12.30
2022-10-20T21:43:54.213Z,12.30
2022-10-20T21:46:29.792Z,12.30
2022-10-20T21:49:08.036Z,12.30
2022-10-20T21:51:41.261Z,12.30
2022-10-20T21:54:12.754Z,12.30
2022-10-20T21:56:41.599Z,12.30
2022-10-20T21:59:15.002Z,12.30
2022-10-20T22:01:42.183Z,12.30
2022-10-20T22:04:09.530Z,12.40
2022-10-20T22:06:38.644Z,12.40
2022-10-20T22:09:07.165Z,12.40
2022-10-20T22:11:38.498Z,12.40
2022-10-20T22:14:06.787Z,12.50
2022-10-20T22:16:39.804Z,12.50
2022-10-20T22:19:09.061Z,12.50
2022-10-20T22:21:39.102Z,12.60
2022-10-20T22:24:07.071Z,12.60
2022-10-20T22:26:35.065Z,12.60
2022-10-20T22:29:04.042Z,12.60
2022-10-20T22:31:31.345Z,12.60
2022-10-20T22:34:00.118Z,12.60
2022-10-20T22:36:29.156Z,12.60
2022-10-20T22:38:57.055Z,12.60
2022-10-20T22:41:24.762Z,12.60
2022-10-20T22:43:52.047Z,12.70
2022-10-20T22:46:19.809Z,12.70
2022-10-20T22:48:47.214Z,12.70
2022-10-20T22:51:14.539Z,12.70
2022-10-20T22:53:42.538Z,12.70
2022-10-20T22:56:15.176Z,12.80
2022-10-20T22:58:42.921Z,12.80
2022-10-20T23:01:13.039Z,12.70
2022-10-20T23:03:40.679Z,12.80
2022-10-20T23:06:10.261Z,12.80
2022-10-20T23:08:47.102Z,12.80
2022-10-20T23:11:15.569Z,12.80
2022-10-20T23:13:43.294Z,12.80
2022-10-20T23:16:11.330Z,12.80
2022-10-20T23:18:38.796Z,12.80
2022-10-20T23:21:06.859Z,12.80
2022-10-20T23:23:38.018Z,12.80
2022-10-20T23:26:09.629Z,12.80
2022-10-20T23:28:37.923Z,12.80
2022-10-20T23:31:09.466Z,12.80
2022-10-20T23:33:38.274Z,12.80
2022-10-20T23:36:06.329Z,12.80
2022-10-20T23:38:33.986Z,12.80
2022-10-20T23:41:01.347Z,12.90
2022-10-20T23:43:28.554Z,12.90
2022-10-20T23:45:55.842Z,12.90
2022-10-20T23:48:23.071Z,12.90
2022-10-20T23:50:50.387Z,12.90
2022-10-20T23:53:17.709Z,13.00
2022-10-20T23:55:45.096Z,13.00
2022-10-20T23:58:12.874Z,12.90
